Millinocket, Maine
Current Conditions -  °F | °C
As of 7:53 AM on Thursday 30 Oct 2014 (Local Time) from KMLT Reporting Station
Clear Clear  
Wind Chill: 43°   Ceiling: Unl
Heat Index: 43°   Visibility: 10mi
Dew Point: 38°   Wind: 3mph
Humidity: 82%   Direction: 270°W
Pressure: 29.83"   Gusts: NA
Location:  45.66°N, 68.71°W
Report Text: KMLT 301153Z AUTO 27003KT 10SM CLR 06/03 A2983 RMK AO2 SLP109 70016 T00610033 10067 20028 53014
Loading
Personal Weather Stations






























Interactive Weather Map New forecast layout! Learn more

10-Day Weather Forecast

Advertisements
Track Severe Weather on mobile